Pulpca — PHMT — position and weather

sailwx.info

Track history (hours):
 
Tides and Currents Weather Stations Pressure Air Temp Water Temp Dewpoint Dewpoint Depression Visibility Wind Speed Wind Dir Waves Ship Positions

Pulpca

Last reported at 2014-Sep-18 03:32 UTC. Time now 2014-Sep-18 11:43 UTC.
Position N 59°49' E 022°56'.

Length 205 m; draft 6.9 m.

Type: Ship (hazmat cat A). MMSI: 245097000.

Date/timePositionNaut miles runAvg speedWind from/ knotsBaromVisibWave heightAir tempDewpointWater temp
2014-Sep-18 03:32N 59°49' E 022°56'20017.8
2014-Sep-17 16:20N 57°11' E 019°01'5318.6
2014-Sep-17 13:28N 56°33' E 017°53'1718.8
2014-Sep-17 12:33N 56°22' E 017°28'5818.6
2014-Sep-17 09:25N 55°49' E 016°03'1618.3
2014-Sep-17 08:33N 55°42' E 015°38'1818.5
2014-Sep-17 07:33N 55°33' E 015°09'1918.5
2014-Sep-17 06:33N 55°24' E 014°41'1818.5
2014-Sep-17 05:33N 55°10' E 014°19'1818.3
2014-Sep-17 04:34N 54°59' E 013°53'1918.9
2014-Sep-17 03:33N 54°53' E 013°22'1918.6
2014-Sep-17 02:33N 54°47' E 012°52'1918.8
2014-Sep-17 01:33N 54°38' E 012°23'1717.5
2014-Sep-17 00:33N 54°24' E 012°04'1818.1
2014-Sep-16 23:33N 54°16' E 011°36'1918.5
2014-Sep-16 22:33N 54°06' E 011°09'13 1.3
2014-Sep-16 12:33N 53°58' E 010°53'1515.2
2014-Sep-16 11:34N 54°08' E 011°11'1616.4
2014-Sep-16 10:33N 54°16' E 011°35'1716.8
2014-Sep-16 09:33N 54°26' E 011°59'1514.9
2014-Sep-16 08:33N 54°37' E 012°17'1716.8
2014-Sep-16 07:33N 54°45' E 012°42'1717.2
2014-Sep-16 06:33N 54°46' E 013°11'1716.6
2014-Sep-16 05:33N 54°45' E 013°40'1717.0
2014-Sep-16 04:34N 54°41' E 014°08'1716.8
2014-Sep-16 03:34N 54°39' E 014°37'1916.8
2014-Sep-16 02:27N 54°42' E 015°09'2017.1
2014-Sep-16 01:17N 54°45' E 015°43'1217.1
2014-Sep-16 00:33N 54°46' E 016°05'1716.7
2014-Sep-15 23:33N 54°49' E 016°33'1716.8
2014-Sep-15 22:33N 54°52' E 017°02'3517.1
2014-Sep-15 20:30N 54°57' E 018°02'1617.2
2014-Sep-15 19:33N 54°58' E 018°31'1716.7
2014-Sep-15 18:33N 54°48' E 018°55'1515.1
2014-Sep-15 17:34N 54°33' E 018°51'1111.0
2014-Sep-15 16:34N 54°32' E 018°32'0 0.0
2014-Sep-15 15:33N 54°32' E 018°32'0 0.0
2014-Sep-15 14:33N 54°32' E 018°32'1 0.7
2014-Sep-15 13:33N 54°32' E 018°33'1111.3
2014-Sep-15 12:33N 54°35' E 018°52'1818.2
2014-Sep-15 11:34N 54°52' E 019°02'1818.2
2014-Sep-15 10:34N 55°09' E 019°12'1918.8
2014-Sep-15 09:33N 55°27' E 019°22'1918.8
2014-Sep-15 08:34N 55°45' E 019°32'1918.8
2014-Sep-15 07:34N 56°03' E 019°43'1918.9
2014-Sep-15 06:33N 56°21' E 019°53'1918.8
2014-Sep-15 05:33N 56°39' E 020°04'19117.3
2014-Sep-14 18:30N 59°22' E 023°13'15 2.5
2014-Sep-14 12:31N 59°32' E 023°33'2121.2
2014-Sep-14 11:32N 59°45' E 023°02'5 4.7
2014-Sep-14 10:33N 59°49' E 022°57'0 0.0
2014-Sep-14 09:32N 59°49' E 022°57'0 0.0
2014-Sep-14 08:29N 59°49' E 022°57'0 0.0
2014-Sep-14 07:32N 59°49' E 022°57'0 0.0
2014-Sep-14 06:32N 59°49' E 022°57'0 0.0
2014-Sep-14 05:29N 59°49' E 022°57'0 0.0
2014-Sep-14 04:26N 59°49' E 022°57'1 0.7
2014-Sep-14 03:33N 59°49' E 022°56'1312.7
2014-Sep-14 02:34N 59°36' E 022°57'39918.1
2014-Sep-13 04:33N 55°00' E 014°02'1818.5
2014-Sep-13 03:33N 54°54' E 013°32'1918.6
2014-Sep-13 02:33N 54°48' E 013°01'1818.4
2014-Sep-13 01:34N 54°40' E 012°33'1818.3
2014-Sep-13 00:34N 54°27' E 012°12'1817.9
2014-Sep-12 23:34N 54°18' E 011°45'1818.4
2014-Sep-12 22:34N 54°09' E 011°18'18 1.0
2014-Sep-12 03:33N 53°58' E 010°53'1514.9
2014-Sep-12 02:33N 54°08' E 011°11'1716.7
2014-Sep-12 01:34N 54°17' E 011°35'1716.8
2014-Sep-12 00:34N 54°26' E 011°60'1514.8
2014-Sep-11 23:33N 54°36' E 012°17'1717.2
2014-Sep-11 22:34N 54°46' E 012°42'1717.1
2014-Sep-11 21:33N 54°53' E 013°09'1717.1
2014-Sep-11 20:34N 54°59' E 013°37'1717.0
2014-Sep-11 19:34N 55°05' E 014°04'1717.3
2014-Sep-11 18:33N 55°19' E 014°23'1717.1
2014-Sep-11 17:34N 55°30' E 014°46'1717.0
2014-Sep-11 16:34N 55°39' E 015°12'1717.0
2014-Sep-11 15:34N 55°47' E 015°38'1717.3
2014-Sep-11 14:33N 55°56' E 016°05'1717.2
2014-Sep-11 13:33N 56°05' E 016°31'29417.2
2014-Sep-10 20:28N 59°38' E 022°52'1111.9
2014-Sep-10 19:33N 59°48' E 022°57'1 1.2
2014-Sep-10 18:30N 59°49' E 022°57'0 0.0
2014-Sep-10 17:24N 59°49' E 022°57'0 0.0
2014-Sep-10 15:06N 59°49' E 022°57'0 0.0
2014-Sep-10 14:09N 59°49' E 022°57'0 0.0
2014-Sep-10 13:30N 59°49' E 022°57'0 0.0
2014-Sep-10 11:24N 59°49' E 022°57'0 0.0
2014-Sep-10 10:30N 59°49' E 022°57'0 0.0
2014-Sep-10 09:30N 59°49' E 022°57'0 0.0
2014-Sep-10 08:24N 59°49' E 022°57'0 0.0
2014-Sep-10 07:21N 59°49' E 022°57'0 0.0
2014-Sep-10 06:24N 59°49' E 022°57'1 0.3
2014-Sep-10 03:23N 59°49' E 022°57'1515.3
2014-Sep-10 02:24N 59°34' E 022°52'33218.2
2014-Sep-09 08:08N 55°39' E 015°33'1118.8
2014-Sep-09 07:34N 55°35' E 015°15'1918.8
2014-Sep-09 06:34N 55°26' E 014°46'1818.2
2014-Sep-09 05:34N 55°13' E 014°24'1818.2
2014-Sep-09 04:34N 55°01' E 014°00'1918.8
2014-Sep-09 03:33N 54°54' E 013°30'1918.9
2014-Sep-09 02:33N 54°48' E 012°59'1918.9
2014-Sep-09 01:34N 54°40' E 012°29'1818.4
2014-Sep-09 00:34N 54°25' E 012°10'2718.8
2014-Sep-08 23:07N 54°13' E 011°29'1118.6
2014-Sep-08 22:33N 54°08' E 011°13'  
Track history (hours):
 
Tides and Currents Weather Stations Pressure Air Temp Water Temp Dewpoint Dewpoint Depression Visibility Wind Speed Wind Dir Waves Ship Positions

Pulpca

Last reported at 2014-Sep-18 03:32 UTC. Time now 2014-Sep-18 11:43 UTC.
Position N 59°49' E 022°56'.

Length 205 m; draft 6.9 m.

Type: Ship (hazmat cat A). MMSI: 245097000.

Date/timePositionNaut miles runAvg speedWind from/ knotsBaromVisibWave heightAir tempDewpointWater temp
2014-Sep-18 03:32N 59°49' E 022°56'20017.8
2014-Sep-17 16:20N 57°11' E 019°01'5318.6
2014-Sep-17 13:28N 56°33' E 017°53'1718.8
2014-Sep-17 12:33N 56°22' E 017°28'5818.6
2014-Sep-17 09:25N 55°49' E 016°03'1618.3
2014-Sep-17 08:33N 55°42' E 015°38'1818.5
2014-Sep-17 07:33N 55°33' E 015°09'1918.5
2014-Sep-17 06:33N 55°24' E 014°41'1818.5
2014-Sep-17 05:33N 55°10' E 014°19'1818.3
2014-Sep-17 04:34N 54°59' E 013°53'1918.9
2014-Sep-17 03:33N 54°53' E 013°22'1918.6
2014-Sep-17 02:33N 54°47' E 012°52'1918.8
2014-Sep-17 01:33N 54°38' E 012°23'1717.5
2014-Sep-17 00:33N 54°24' E 012°04'1818.1
2014-Sep-16 23:33N 54°16' E 011°36'1918.5
2014-Sep-16 22:33N 54°06' E 011°09'13 1.3
2014-Sep-16 12:33N 53°58' E 010°53'1515.2
2014-Sep-16 11:34N 54°08' E 011°11'1616.4
2014-Sep-16 10:33N 54°16' E 011°35'1716.8
2014-Sep-16 09:33N 54°26' E 011°59'1514.9
2014-Sep-16 08:33N 54°37' E 012°17'1716.8
2014-Sep-16 07:33N 54°45' E 012°42'1717.2
2014-Sep-16 06:33N 54°46' E 013°11'1716.6
2014-Sep-16 05:33N 54°45' E 013°40'1717.0
2014-Sep-16 04:34N 54°41' E 014°08'1716.8
2014-Sep-16 03:34N 54°39' E 014°37'1916.8
2014-Sep-16 02:27N 54°42' E 015°09'2017.1
2014-Sep-16 01:17N 54°45' E 015°43'1217.1
2014-Sep-16 00:33N 54°46' E 016°05'1716.7
2014-Sep-15 23:33N 54°49' E 016°33'1716.8
2014-Sep-15 22:33N 54°52' E 017°02'3517.1
2014-Sep-15 20:30N 54°57' E 018°02'1617.2
2014-Sep-15 19:33N 54°58' E 018°31'1716.7
2014-Sep-15 18:33N 54°48' E 018°55'1515.1
2014-Sep-15 17:34N 54°33' E 018°51'1111.0
2014-Sep-15 16:34N 54°32' E 018°32'0 0.0
2014-Sep-15 15:33N 54°32' E 018°32'0 0.0
2014-Sep-15 14:33N 54°32' E 018°32'1 0.7
2014-Sep-15 13:33N 54°32' E 018°33'1111.3
2014-Sep-15 12:33N 54°35' E 018°52'1818.2
2014-Sep-15 11:34N 54°52' E 019°02'1818.2
2014-Sep-15 10:34N 55°09' E 019°12'1918.8
2014-Sep-15 09:33N 55°27' E 019°22'1918.8
2014-Sep-15 08:34N 55°45' E 019°32'1918.8
2014-Sep-15 07:34N 56°03' E 019°43'1918.9
2014-Sep-15 06:33N 56°21' E 019°53'1918.8
2014-Sep-15 05:33N 56°39' E 020°04'19117.3
2014-Sep-14 18:30N 59°22' E 023°13'15 2.5
2014-Sep-14 12:31N 59°32' E 023°33'2121.2
2014-Sep-14 11:32N 59°45' E 023°02'5 4.7
2014-Sep-14 10:33N 59°49' E 022°57'0 0.0
2014-Sep-14 09:32N 59°49' E 022°57'0 0.0
2014-Sep-14 08:29N 59°49' E 022°57'0 0.0
2014-Sep-14 07:32N 59°49' E 022°57'0 0.0
2014-Sep-14 06:32N 59°49' E 022°57'0 0.0
2014-Sep-14 05:29N 59°49' E 022°57'0 0.0
2014-Sep-14 04:26N 59°49' E 022°57'1 0.7
2014-Sep-14 03:33N 59°49' E 022°56'1312.7
2014-Sep-14 02:34N 59°36' E 022°57'39918.1
2014-Sep-13 04:33N 55°00' E 014°02'1818.5
2014-Sep-13 03:33N 54°54' E 013°32'1918.6
2014-Sep-13 02:33N 54°48' E 013°01'1818.4
2014-Sep-13 01:34N 54°40' E 012°33'1818.3
2014-Sep-13 00:34N 54°27' E 012°12'1817.9
2014-Sep-12 23:34N 54°18' E 011°45'1818.4
2014-Sep-12 22:34N 54°09' E 011°18'18 1.0
2014-Sep-12 03:33N 53°58' E 010°53'1514.9
2014-Sep-12 02:33N 54°08' E 011°11'1716.7
2014-Sep-12 01:34N 54°17' E 011°35'1716.8
2014-Sep-12 00:34N 54°26' E 011°60'1514.8
2014-Sep-11 23:33N 54°36' E 012°17'1717.2
2014-Sep-11 22:34N 54°46' E 012°42'1717.1
2014-Sep-11 21:33N 54°53' E 013°09'1717.1
2014-Sep-11 20:34N 54°59' E 013°37'1717.0
2014-Sep-11 19:34N 55°05' E 014°04'1717.3
2014-Sep-11 18:33N 55°19' E 014°23'1717.1
2014-Sep-11 17:34N 55°30' E 014°46'1717.0
2014-Sep-11 16:34N 55°39' E 015°12'1717.0
2014-Sep-11 15:34N 55°47' E 015°38'1717.3
2014-Sep-11 14:33N 55°56' E 016°05'1717.2
2014-Sep-11 13:33N 56°05' E 016°31'29417.2
2014-Sep-10 20:28N 59°38' E 022°52'1111.9
2014-Sep-10 19:33N 59°48' E 022°57'1 1.2
2014-Sep-10 18:30N 59°49' E 022°57'0 0.0
2014-Sep-10 17:24N 59°49' E 022°57'0 0.0
2014-Sep-10 15:06N 59°49' E 022°57'0 0.0
2014-Sep-10 14:09N 59°49' E 022°57'0 0.0
2014-Sep-10 13:30N 59°49' E 022°57'0 0.0
2014-Sep-10 11:24N 59°49' E 022°57'0 0.0
2014-Sep-10 10:30N 59°49' E 022°57'0 0.0
2014-Sep-10 09:30N 59°49' E 022°57'0 0.0
2014-Sep-10 08:24N 59°49' E 022°57'0 0.0
2014-Sep-10 07:21N 59°49' E 022°57'0 0.0
2014-Sep-10 06:24N 59°49' E 022°57'1 0.3
2014-Sep-10 03:23N 59°49' E 022°57'1515.3
2014-Sep-10 02:24N 59°34' E 022°52'33218.2
2014-Sep-09 08:08N 55°39' E 015°33'1118.8
2014-Sep-09 07:34N 55°35' E 015°15'1918.8
2014-Sep-09 06:34N 55°26' E 014°46'1818.2
2014-Sep-09 05:34N 55°13' E 014°24'1818.2
2014-Sep-09 04:34N 55°01' E 014°00'1918.8
2014-Sep-09 03:33N 54°54' E 013°30'1918.9
2014-Sep-09 02:33N 54°48' E 012°59'1918.9
2014-Sep-09 01:34N 54°40' E 012°29'1818.4
2014-Sep-09 00:34N 54°25' E 012°10'2718.8
2014-Sep-08 23:07N 54°13' E 011°29'1118.6
2014-Sep-08 22:33N 54°08' E 011°13'  

Dump ship's entire track history